createdAt,value
2022-08-18T00:06:20.647Z,31.9
2022-08-18T00:11:40.818Z,31.9
2022-08-18T00:17:11.937Z,31.9
2022-08-18T00:23:10.736Z,31.9
2022-08-18T00:28:51.315Z,31.9
2022-08-18T00:34:33.448Z,31.8
2022-08-18T00:40:24.311Z,31.8
2022-08-18T00:46:09.814Z,31.8
2022-08-18T00:52:15.323Z,31.8
2022-08-18T00:58:06.611Z,31.8
2022-08-18T01:03:44.158Z,31.8
2022-08-18T01:09:24.300Z,31.8
2022-08-18T01:15:46.336Z,31.7
2022-08-18T01:21:26.370Z,31.7
2022-08-18T01:27:04.787Z,31.7
2022-08-18T01:32:44.258Z,31.6
2022-08-18T01:38:31.370Z,31.6
2022-08-18T01:46:14.703Z,31.6
2022-08-18T01:52:13.441Z,31.6
2022-08-18T01:57:35.228Z,31.6
2022-08-18T02:03:51.318Z,31.6
2022-08-18T02:10:18.640Z,31.6
2022-08-18T02:15:59.293Z,31.5
2022-08-18T02:21:54.629Z,31.5
2022-08-18T02:27:18.939Z,31.5
2022-08-18T02:33:02.099Z,31.4
2022-08-18T02:38:40.295Z,31.4
2022-08-18T02:44:10.479Z,31.4
2022-08-18T02:49:45.759Z,31.4
2022-08-18T02:55:22.797Z,31.4
2022-08-18T03:01:12.352Z,31.4
2022-08-18T03:06:53.707Z,31.4
2022-08-18T03:13:01.226Z,31.3
2022-08-18T03:18:50.150Z,31.3
2022-08-18T03:25:28.189Z,31.3
2022-08-18T03:31:16.884Z,31.3
2022-08-18T03:36:40.674Z,31.3
2022-08-18T03:42:46.304Z,31.3
2022-08-18T03:48:59.569Z,31.2
2022-08-18T03:54:36.800Z,31.2
2022-08-18T04:00:14.509Z,31.2
2022-08-18T04:05:58.889Z,31.2
2022-08-18T04:11:57.853Z,31.2
2022-08-18T04:17:56.376Z,31.2
2022-08-18T04:24:00.504Z,31.1
2022-08-18T04:29:42.858Z,31.1
2022-08-18T04:35:14.000Z,31.1
2022-08-18T04:40:57.595Z,31.1
2022-08-18T04:46:40.881Z,31.1
2022-08-18T04:53:42.187Z,31.1
2022-08-18T04:59:17.618Z,31.1
2022-08-18T05:04:56.216Z,31.1
2022-08-18T05:10:33.655Z,31.1
2022-08-18T05:16:48.361Z,31.1
2022-08-18T05:22:46.984Z,31.1
2022-08-18T05:28:34.091Z,31.1
2022-08-18T05:35:00.683Z,31.1
2022-08-18T05:40:44.454Z,31
2022-08-18T05:46:22.097Z,31
2022-08-18T05:52:04.727Z,31
2022-08-18T05:57:49.896Z,31
2022-08-18T06:03:28.971Z,31
2022-08-18T06:09:12.716Z,31
2022-08-18T06:14:50.942Z,31
2022-08-18T06:20:34.857Z,31
2022-08-18T06:26:19.795Z,33.9
2022-08-18T06:32:01.976Z,36.2
2022-08-18T06:37:51.714Z,34.9
2022-08-18T06:44:05.532Z,34.1
2022-08-18T06:49:54.528Z,38.4
2022-08-18T06:55:57.506Z,38.5
2022-08-18T07:01:50.996Z,39
2022-08-18T07:07:27.478Z,39.4
2022-08-18T07:13:06.453Z,39.9
2022-08-18T07:19:46.724Z,40.3
2022-08-18T07:25:44.975Z,40.8
2022-08-18T07:31:33.263Z,41.3
2022-08-18T07:37:09.974Z,41.6
2022-08-18T07:43:43.328Z,42
2022-08-18T07:50:13.853Z,42.4
2022-08-18T07:57:42.211Z,43.1
2022-08-18T08:04:00.984Z,43.5
2022-08-18T08:10:24.880Z,44
2022-08-18T08:16:49.618Z,44.4
2022-08-18T08:23:15.153Z,44.8
2022-08-18T08:29:12.187Z,45.3
2022-08-18T08:35:47.461Z,45.6
2022-08-18T08:41:49.720Z,45.9
2022-08-18T08:48:20.461Z,46.2
2022-08-18T08:54:02.396Z,46.4
2022-08-18T08:59:41.712Z,46.8
2022-08-18T09:06:01.442Z,46.9
2022-08-18T09:11:37.616Z,47.3
2022-08-18T09:17:20.736Z,47.5
2022-08-18T09:23:01.617Z,47.7
2022-08-18T09:29:00.630Z,47.9
2022-08-18T13:09:16.181Z,54.1
2022-08-18T13:16:16.263Z,54.1
2022-08-18T13:23:08.527Z,53.9
2022-08-18T13:29:47.121Z,53.9
2022-08-18T13:37:09.038Z,53.3
2022-08-18T13:43:43.401Z,52.9
2022-08-18T13:49:52.543Z,52.9
2022-08-18T13:56:20.421Z,52.8
2022-08-18T14:03:04.087Z,52.8
2022-08-18T14:09:54.451Z,52.6
2022-08-18T14:21:58.282Z,52.2
2022-08-18T14:28:12.769Z,51.8
2022-08-18T14:34:50.152Z,51.5
2022-08-18T14:41:57.097Z,51.2
2022-08-18T14:49:28.024Z,50.9
2022-08-18T14:55:40.887Z,50.6
2022-08-18T15:01:43.768Z,50.3
2022-08-18T15:08:31.589Z,49.9
2022-08-18T15:14:49.960Z,49.6
2022-08-18T15:22:32.439Z,49.1
2022-08-18T15:28:50.729Z,48.8
2022-08-18T15:36:02.023Z,48.3
2022-08-18T15:42:37.162Z,47.9
2022-08-18T15:48:52.754Z,47.5
2022-08-18T15:55:35.813Z,47.1
2022-08-18T16:02:48.458Z,46.6
2022-08-18T16:09:03.803Z,46.3
2022-08-18T16:15:01.657Z,45.9
2022-08-18T16:21:07.137Z,45.4
2022-08-18T16:26:51.256Z,45.1
2022-08-18T16:32:33.032Z,44.8
2022-08-18T16:38:14.601Z,44.5
2022-08-18T16:43:59.889Z,44.1
2022-08-18T16:49:39.503Z,43.8
2022-08-18T16:55:35.196Z,43.5
2022-08-18T17:02:05.930Z,42.8
2022-08-18T17:07:53.635Z,41.4
2022-08-18T17:13:47.021Z,40.5
2022-08-18T17:19:27.011Z,39.9
2022-08-18T17:25:26.838Z,39.4
2022-08-18T17:31:41.619Z,39
2022-08-18T17:37:26.019Z,38.7
2022-08-18T17:43:08.104Z,38.5
2022-08-18T17:49:01.928Z,38.3
2022-08-18T17:55:06.756Z,38
2022-08-18T18:01:30.415Z,37.8
2022-08-18T18:07:22.406Z,37.6
2022-08-18T18:13:31.987Z,37.5
2022-08-18T18:19:16.246Z,37.3
2022-08-18T18:25:29.606Z,37.2
2022-08-18T18:31:17.947Z,37.1
2022-08-18T18:36:44.290Z,36.9
2022-08-18T18:42:29.235Z,36.9
2022-08-18T18:48:38.747Z,36.8
2022-08-18T18:54:40.845Z,36.7
2022-08-18T19:00:25.260Z,36.6
2022-08-18T19:06:31.967Z,36.4
2022-08-18T19:12:19.780Z,36.4
2022-08-18T19:18:39.951Z,36.3
2022-08-18T19:26:41.381Z,36.2
2022-08-18T19:32:56.679Z,36.2
2022-08-18T19:39:43.963Z,36.1
2022-08-18T19:45:47.941Z,36
2022-08-18T19:51:15.775Z,36
2022-08-18T19:57:19.404Z,35.9
2022-08-18T20:03:35.744Z,35.9
2022-08-18T20:09:32.698Z,35.8
2022-08-18T20:15:23.005Z,35.8
2022-08-18T20:21:13.513Z,35.7
2022-08-18T20:26:54.838Z,35.7
2022-08-18T20:32:39.001Z,35.6
2022-08-18T20:38:16.608Z,35.6
2022-08-18T20:44:12.904Z,35.5
2022-08-18T20:50:01.818Z,35.5
2022-08-18T20:56:48.637Z,35.4
2022-08-18T21:02:22.532Z,35.4
2022-08-18T21:08:25.989Z,35.3
2022-08-18T21:14:20.621Z,35.3
2022-08-18T21:19:54.009Z,35.3
2022-08-18T21:25:40.871Z,35.2
2022-08-18T21:31:59.377Z,35.2
2022-08-18T21:37:25.015Z,35.1
2022-08-18T21:43:05.112Z,35.1
2022-08-18T21:48:32.846Z,35.1
2022-08-18T21:54:12.005Z,35.1
2022-08-18T21:59:56.241Z,35
2022-08-18T22:05:55.265Z,35
2022-08-18T22:12:17.532Z,34.9
2022-08-18T22:18:04.766Z,34.9
2022-08-18T22:23:27.607Z,34.9
2022-08-18T22:29:05.628Z,34.9
2022-08-18T22:34:49.737Z,34.8
2022-08-18T22:40:31.206Z,34.8
2022-08-18T22:45:53.723Z,34.8
2022-08-18T22:51:39.533Z,34.8
2022-08-18T22:57:44.113Z,34.7
2022-08-18T23:03:47.199Z,34.7
2022-08-18T23:09:12.921Z,34.7
2022-08-18T23:14:43.989Z,34.6
2022-08-18T23:20:17.712Z,34.6
2022-08-18T23:26:23.446Z,34.6
2022-08-18T23:32:09.205Z,34.6
2022-08-18T23:37:52.767Z,34.5
2022-08-18T23:43:39.899Z,34.4
2022-08-18T23:49:20.346Z,34.4
2022-08-18T23:55:01.577Z,34.4
